Time;durP1;ratioP1;P1;durP2;ratioP2;P2;SDS_P1;SDS_P2;PMS_P1;PMS_P2;Temp;Humidity;BMP_temperature;BMP_pressure;BME280_temperature;BME280_humidity;BME280_pressure;Samples;Min_cycle;Max_cycle;Signal;HPM_P1;HPM_P2
2022/09/19 00:01:24;;;;;;;4.65;0.50;;;;;;;-140.72;100.00;52904.25;5037920;28;20071;-70
2022/09/19 00:03:55;;;;;;;1.13;0.60;;;;;;;-140.72;100.00;52904.25;5031705;28;20037;-71
2022/09/19 00:06:21;;;;;;;2.25;0.88;;;;;;;-140.72;100.00;52904.25;5039012;28;20029;-70
2022/09/19 00:08:47;;;;;;;0.68;0.20;;;;;;;-140.72;100.00;52877.88;5038156;28;20284;-68
2022/09/19 00:11:15;;;;;;;2.47;0.50;;;;;;;-140.72;100.00;52879.91;5034448;28;20064;-68
2022/09/19 00:13:45;;;;;;;1.45;0.30;;;;;;;-140.72;100.00;52886.00;5036947;28;20025;-68
2022/09/19 00:16:12;;;;;;;4.47;0.47;;;;;;;-140.72;100.00;52918.47;5033626;28;20033;-71
2022/09/19 00:18:38;;;;;;;4.35;0.60;;;;;;;-140.72;100.00;52926.59;5036616;28;20018;-69
2022/09/19 00:21:04;;;;;;;3.15;0.60;;;;;;;-140.72;100.00;52890.06;5043818;28;20082;-71
2022/09/19 00:26:17;;;;;;;2.67;0.63;;;;;;;-140.72;100.00;52904.25;5029661;28;20080;-69
2022/09/19 00:28:44;;;;;;;3.38;0.90;;;;;;;-140.72;100.00;52922.53;5036940;28;20025;-71
2022/09/19 00:31:17;;;;;;;2.50;0.70;;;;;;;-140.72;100.00;52912.38;5028658;28;20025;-69
2022/09/19 00:33:44;;;;;;;2.38;0.70;;;;;;;-140.72;100.00;52914.41;5029500;28;20386;-69
2022/09/19 00:36:10;;;;;;;3.15;0.43;;;;;;;-140.72;100.00;52922.53;5030094;28;20033;-68
2022/09/19 00:38:36;;;;;;;4.97;0.85;;;;;;;-140.72;100.00;52902.22;5034249;28;20025;-68
2022/09/19 00:41:01;;;;;;;3.25;0.50;;;;;;;-140.72;100.00;52896.16;5031058;28;20140;-67
2022/09/19 00:43:47;;;;;;;8.68;0.82;;;;;;;-140.72;100.00;52883.97;5031115;28;20025;-68
2022/09/19 00:46:14;;;;;;;2.80;0.50;;;;;;;-140.72;100.00;52904.25;5017492;28;20029;-69
2022/09/19 00:48:41;;;;;;;2.65;0.52;;;;;;;-140.72;100.00;52948.91;5030389;28;20033;-68
2022/09/19 00:51:10;;;;;;;2.80;0.63;;;;;;;-140.72;100.00;52942.81;5030398;28;20108;-69
2022/09/19 00:53:37;;;;;;;1.75;0.50;;;;;;;-140.72;100.00;52934.69;5030251;28;20374;-69
2022/09/19 00:56:04;;;;;;;1.02;0.50;;;;;;;-140.72;100.00;52934.69;5029461;28;20462;-70
2022/09/19 00:58:41;;;;;;;0.50;0.30;;;;;;;-140.72;100.00;52898.16;5030018;28;20033;-68
2022/09/19 01:01:07;;;;;;;2.33;0.70;;;;;;;-140.72;100.00;52910.34;5028790;28;20409;-69
2022/09/19 01:03:32;;;;;;;7.78;0.75;;;;;;;-140.72;100.00;52918.47;5018527;28;20017;-68
2022/09/19 01:06:20;;;;;;;0.88;0.40;;;;;;;-140.72;100.00;52930.66;5030836;28;20115;-67
2022/09/19 01:09:01;;;;;;;4.75;1.02;;;;;;;-140.72;100.00;52914.41;5019318;28;20030;-71
2022/09/19 01:11:56;;;;;;;2.58;0.63;;;;;;;-140.72;100.00;52896.16;5043580;28;20366;-68
2022/09/19 01:14:37;;;;;;;3.50;0.70;;;;;;;-140.72;100.00;52881.94;5035643;28;20033;-71
2022/09/19 01:17:12;;;;;;;5.63;0.75;;;;;;;-140.72;100.00;52888.03;5028553;28;20442;-67
2022/09/19 01:19:55;;;;;;;7.03;1.08;;;;;;;-140.72;100.00;52910.34;5040756;28;20466;-67
2022/09/19 01:22:47;;;;;;;5.40;0.55;;;;;;;-140.72;100.00;52896.16;5029402;28;20500;-69
2022/09/19 01:25:33;;;;;;;3.95;0.68;;;;;;;-140.72;100.00;52883.97;5020196;28;20032;-68
2022/09/19 01:28:18;;;;;;;2.40;1.10;;;;;;;-140.72;100.00;52940.78;5047054;28;20091;-68
2022/09/19 01:31:18;;;;;;;3.35;1.05;;;;;;;-140.72;100.00;52936.72;5045528;28;20025;-70
2022/09/19 01:34:11;;;;;;;1.58;0.63;;;;;;;-140.72;100.00;52928.63;5039632;28;20040;-71
2022/09/19 01:36:43;;;;;;;1.60;0.75;;;;;;;-140.72;100.00;52910.34;5031593;28;20064;-72
2022/09/19 01:39:09;;;;;;;3.47;0.40;;;;;;;-140.72;100.00;52892.09;5029639;28;20034;-68
2022/09/19 01:41:35;;;;;;;3.25;0.68;;;;;;;-140.72;100.00;52902.22;5039084;28;20032;-67
2022/09/19 01:44:04;;;;;;;3.55;0.95;;;;;;;-140.72;100.00;52920.50;5025353;28;20026;-68
2022/09/19 01:46:52;;;;;;;1.88;0.32;;;;;;;-140.72;100.00;52944.84;5021880;28;20026;-70
2022/09/19 01:49:23;;;;;;;3.58;0.47;;;;;;;-140.72;100.00;52924.56;5029485;28;20037;-71
2022/09/19 01:51:56;;;;;;;5.22;1.00;;;;;;;-140.72;100.00;52916.44;5029607;28;20035;-68
2022/09/19 01:54:39;;;;;;;2.17;0.60;;;;;;;-140.72;100.00;52902.22;5030310;28;20025;-68
2022/09/19 01:57:21;;;;;;;2.30;0.68;;;;;;;-140.72;100.00;52952.97;5029274;28;20030;-70
2022/09/19 02:00:00;;;;;;;1.27;0.75;;;;;;;-140.72;100.00;52926.59;5029705;28;20030;-68
2022/09/19 02:02:34;;;;;;;0.82;0.63;;;;;;;-140.72;100.00;52914.41;5029639;28;20033;-68
2022/09/19 02:05:34;;;;;;;8.18;1.50;;;;;;;-140.72;100.00;52924.56;5029772;28;20083;-67
2022/09/19 02:08:15;;;;;;;0.38;0.20;;;;;;;-140.72;100.00;52938.75;5020222;28;20060;-69
2022/09/19 02:10:46;;;;;;;1.00;0.50;;;;;;;-140.72;100.00;52928.63;5029261;28;20361;-69
2022/09/19 02:13:15;;;;;;;3.28;0.38;;;;;;;-140.72;100.00;52967.16;5030183;28;20025;-68
2022/09/19 02:15:46;;;;;;;3.92;0.35;;;;;;;-140.72;100.00;52926.59;5029551;28;20222;-69
2022/09/19 02:18:31;;;;;;;14.48;1.45;;;;;;;-140.72;100.00;52952.97;5017432;28;20029;-71
2022/09/19 02:21:07;;;;;;;4.00;0.50;;;;;;;-140.72;100.00;52922.53;5030528;28;20933;-69
2022/09/19 02:23:39;;;;;;;2.45;0.75;;;;;;;-140.72;100.00;52877.88;5029416;28;20025;-68
2022/09/19 02:26:08;;;;;;;3.72;0.40;;;;;;;-140.72;100.00;52952.97;5032525;28;20029;-69
2022/09/19 02:28:41;;;;;;;0.77;0.38;;;;;;;-140.72;100.00;52930.66;5049582;28;20025;-69
2022/09/19 02:31:09;;;;;;;1.50;0.60;;;;;;;-140.72;100.00;52965.16;5025502;28;20469;-69
2022/09/19 02:33:35;;;;;;;2.30;0.60;;;;;;;-140.72;100.00;52938.75;5024245;28;20048;-72
2022/09/19 02:36:19;;;;;;;0.38;0.20;;;;;;;-140.72;100.00;52898.16;5025248;28;20435;-69
2022/09/19 02:38:51;;;;;;;1.50;0.98;;;;;;;-140.72;100.00;52904.25;5022679;28;20029;-71
2022/09/19 02:41:36;;;;;;;1.40;0.40;;;;;;;-140.72;100.00;52932.66;5032660;28;20446;-69
2022/09/19 02:44:19;;;;;;;4.40;1.00;;;;;;;-140.72;100.00;52959.06;5023141;28;20032;-71
2022/09/19 02:47:08;;;;;;;2.38;0.45;;;;;;;-140.72;100.00;52918.47;5031882;28;20485;-68
2022/09/19 02:49:41;;;;;;;3.05;0.45;;;;;;;-140.72;100.00;52930.66;5032632;28;20037;-69
2022/09/19 02:52:33;;;;;;;1.33;0.52;;;;;;;-140.72;100.00;52906.28;5020593;28;20036;-71
2022/09/19 02:55:15;;;;;;;1.15;0.50;;;;;;;-140.72;100.00;52914.41;5043450;28;20051;-69
2022/09/19 02:57:44;;;;;;;2.25;0.45;;;;;;;-140.72;100.00;52918.47;5043458;28;20025;-70
2022/09/19 03:00:12;;;;;;;2.63;0.73;;;;;;;-140.72;100.00;52944.84;5031647;28;20025;-70
2022/09/19 03:02:54;;;;;;;2.97;0.75;;;;;;;-140.72;100.00;52918.47;5031052;28;20053;-68
2022/09/19 03:05:20;;;;;;;0.30;0.20;;;;;;;-140.72;100.00;52916.44;5037472;28;20025;-70
2022/09/19 03:07:54;;;;;;;2.70;0.35;;;;;;;-140.72;100.00;52961.09;5045603;28;20271;-70
2022/09/19 03:10:24;;;;;;;0.50;0.20;;;;;;;-140.72;100.00;52922.53;5025088;28;20076;-72
2022/09/19 03:13:00;;;;;;;;;;;;;;;-140.72;100.00;52946.88;5020116;28;20030;-70
2022/09/19 03:15:49;;;;;;;5.13;0.60;;;;;;;-140.72;100.00;52902.22;5030890;28;19925;-69
2022/09/19 03:18:18;;;;;;;0.50;0.20;;;;;;;-140.72;100.00;52948.91;5032719;28;20017;-68
2022/09/19 03:20:59;;;;;;;3.53;0.55;;;;;;;-140.72;100.00;52948.91;5031133;28;20516;-69
2022/09/19 03:23:46;;;;;;;2.58;0.85;;;;;;;-140.72;100.00;52922.53;5032822;28;20112;-69
2022/09/19 03:26:16;;;;;;;3.40;0.60;;;;;;;-140.72;100.00;52942.81;5033340;28;20033;-68
2022/09/19 03:28:42;;;;;;;2.65;0.50;;;;;;;-140.72;100.00;52938.75;5031305;28;20036;-68
2022/09/19 03:31:07;;;;;;;4.65;0.70;;;;;;;-140.72;100.00;52946.88;5033812;28;20029;-71
2022/09/19 03:33:33;;;;;;;2.92;1.00;;;;;;;-140.72;100.00;52926.59;5033512;28;20028;-69
2022/09/19 03:36:02;;;;;;;3.03;0.85;;;;;;;-140.72;100.00;52918.47;5033382;28;20036;-67
2022/09/19 03:38:28;;;;;;;9.32;0.50;;;;;;;-140.72;100.00;52944.84;5031451;28;20539;-68
2022/09/19 03:40:54;;;;;;;1.90;0.40;;;;;;;-140.72;100.00;52902.22;5032040;28;20132;-68
2022/09/19 03:43:20;;;;;;;1.13;0.35;;;;;;;-140.72;100.00;52938.75;5021671;28;20104;-68
2022/09/19 03:45:45;;;;;;;1.85;0.50;;;;;;;-140.72;100.00;52963.13;5031723;28;20068;-71
2022/09/19 03:48:11;;;;;;;0.77;0.30;;;;;;;-140.72;100.00;52912.38;5030907;28;20029;-71
2022/09/19 03:50:36;;;;;;;0.20;0.20;;;;;;;-140.72;100.00;52916.44;5031250;28;20038;-72
2022/09/19 03:53:02;;;;;;;0.38;0.25;;;;;;;-140.72;100.00;52922.53;5031013;28;20037;-68
2022/09/19 03:55:27;;;;;;;1.90;0.43;;;;;;;-140.72;100.00;52942.81;5031698;28;20029;-70
2022/09/19 03:57:53;;;;;;;0.63;0.40;;;;;;;-140.72;100.00;52948.91;5030622;28;20116;-68
2022/09/19 04:00:18;;;;;;;8.07;0.77;;;;;;;-140.72;100.00;52924.56;5030843;28;20379;-70
2022/09/19 04:02:43;;;;;;;6.38;0.65;;;;;;;-140.72;100.00;52920.50;5032308;28;20025;-66
2022/09/19 04:05:10;;;;;;;4.63;1.17;;;;;;;-140.72;100.00;52932.66;5030964;28;20053;-69
2022/09/19 04:07:37;;;;;;;1.92;0.70;;;;;;;-140.72;100.00;52965.16;5031481;28;20041;-71
2022/09/19 04:10:04;;;;;;;9.32;1.02;;;;;;;-140.72;100.00;52934.69;5033176;28;20037;-70
2022/09/19 04:12:30;;;;;;;1.80;0.73;;;;;;;-140.72;100.00;52963.13;5031254;28;20373;-68
2022/09/19 04:14:56;;;;;;;1.63;0.60;;;;;;;-140.72;100.00;52942.81;5034434;28;20121;-68
2022/09/19 04:17:21;;;;;;;2.58;1.05;;;;;;;-140.72;100.00;52926.59;5035150;28;20123;-68
2022/09/19 04:19:48;;;;;;;6.13;1.25;;;;;;;-140.72;100.00;52950.94;5031756;28;20026;-68
2022/09/19 04:22:13;;;;;;;1.50;0.70;;;;;;;-140.72;100.00;52975.28;5030780;28;20033;-71
2022/09/19 04:24:39;;;;;;;1.67;0.82;;;;;;;-140.72;100.00;52948.91;5030655;28;20029;-68
2022/09/19 04:27:06;;;;;;;2.85;0.80;;;;;;;-140.72;100.00;52983.41;5039617;28;20389;-68
2022/09/19 04:29:33;;;;;;;3.28;1.15;;;;;;;-140.72;100.00;52944.84;5039030;28;20100;-67
2022/09/19 04:32:02;;;;;;;2.60;0.65;;;;;;;-140.72;100.00;52926.59;5033878;28;20086;-72
2022/09/19 04:34:28;;;;;;;7.63;1.35;;;;;;;-140.72;100.00;52930.66;5031184;28;20505;-70
2022/09/19 04:36:56;;;;;;;1.20;0.70;;;;;;;-140.72;100.00;52963.13;5032713;28;20029;-68
2022/09/19 04:39:21;;;;;;;1.23;0.63;;;;;;;-140.72;100.00;52948.91;5032777;28;20508;-69
2022/09/19 04:41:48;;;;;;;1.50;1.33;;;;;;;-140.72;100.00;52906.28;5034655;28;20116;-69
2022/09/19 04:44:13;;;;;;;5.82;0.90;;;;;;;-140.72;100.00;52952.97;5031052;28;20088;-68
2022/09/19 04:46:41;;;;;;;1.35;1.00;;;;;;;-140.72;100.00;52926.59;5029741;28;20033;-67
2022/09/19 04:49:07;;;;;;;1.70;1.13;;;;;;;-140.72;100.00;52967.16;5031696;28;20060;-68
2022/09/19 04:51:32;;;;;;;0.82;0.60;;;;;;;-140.72;100.00;52918.47;5030387;28;20029;-69
2022/09/19 04:54:00;;;;;;;5.60;1.25;;;;;;;-140.72;100.00;52944.84;5030449;28;20059;-68
2022/09/19 04:56:26;;;;;;;1.15;0.55;;;;;;;-140.72;100.00;52955.00;5030921;28;20033;-68
2022/09/19 04:58:52;;;;;;;1.13;0.40;;;;;;;-140.72;100.00;52944.84;5031625;28;20035;-68
2022/09/19 05:01:17;;;;;;;1.67;0.73;;;;;;;-140.72;100.00;52965.16;5039823;28;20021;-67
2022/09/19 05:03:45;;;;;;;2.90;0.50;;;;;;;-140.72;100.00;52950.94;5035344;28;20240;-68
2022/09/19 05:06:12;;;;;;;5.47;0.73;;;;;;;-140.72;100.00;52940.78;5031533;28;20465;-68
2022/09/19 05:08:41;;;;;;;1.67;0.95;;;;;;;-140.72;100.00;52946.88;5029147;28;20022;-70
2022/09/19 05:11:07;;;;;;;2.40;0.63;;;;;;;-140.72;100.00;52955.00;5029725;28;20041;-68
2022/09/19 05:13:38;;;;;;;1.42;0.75;;;;;;;-140.72;100.00;52967.16;5034312;28;20350;-67
2022/09/19 05:16:05;;;;;;;0.73;0.38;;;;;;;-140.72;100.00;52944.84;5033441;28;20104;-66
2022/09/19 05:18:33;;;;;;;2.50;0.82;;;;;;;-140.72;100.00;52948.91;5035885;28;20437;-67
2022/09/19 05:21:03;;;;;;;2.10;0.68;;;;;;;-140.72;100.00;52940.78;5031480;28;20022;-68
2022/09/19 05:23:29;;;;;;;3.63;1.50;;;;;;;-140.72;100.00;52934.69;5032854;28;20045;-66
2022/09/19 05:25:55;;;;;;;2.42;1.20;;;;;;;-140.72;100.00;52932.66;5029745;28;20069;-67
2022/09/19 05:28:27;;;;;;;3.95;1.85;;;;;;;-140.72;100.00;52944.84;5035850;28;20028;-67
2022/09/19 05:30:55;;;;;;;5.20;1.73;;;;;;;-140.72;100.00;52948.91;5039176;28;20036;-68
2022/09/19 05:33:23;;;;;;;4.93;1.30;;;;;;;-140.72;100.00;52918.47;5036668;28;20339;-69
2022/09/19 05:35:50;;;;;;;6.38;1.15;;;;;;;-140.72;100.00;52946.88;5034329;28;20435;-66
2022/09/19 05:38:16;;;;;;;4.70;1.38;;;;;;;-140.72;100.00;52963.13;5039291;28;20025;-67
2022/09/19 05:40:42;;;;;;;2.45;0.95;;;;;;;-140.72;100.00;52950.94;5030094;28;20386;-67
2022/09/19 05:43:07;;;;;;;4.93;1.13;;;;;;;-140.72;100.00;52906.28;5041897;28;20029;-67
2022/09/19 05:45:33;;;;;;;0.60;0.60;;;;;;;-140.72;100.00;52926.59;5029704;28;20021;-66
2022/09/19 05:48:04;;;;;;;5.05;0.95;;;;;;;-140.72;100.00;52944.84;5028817;28;20036;-67
2022/09/19 05:50:31;;;;;;;0.68;0.32;;;;;;;-140.72;100.00;52900.19;5030202;28;20064;-66
2022/09/19 05:55:41;;;;;;;5.70;0.98;;;;;;;-140.72;100.00;52918.47;5028298;28;20553;-66
2022/09/19 05:58:07;;;;;;;3.05;0.70;;;;;;;-140.72;100.00;52932.66;5028592;28;20112;-66
2022/09/19 06:00:34;;;;;;;8.35;1.58;;;;;;;-140.72;100.00;52912.38;5029087;28;20383;-67
2022/09/19 06:03:01;;;;;;;4.03;1.77;;;;;;;-140.72;100.00;52940.78;5025034;28;20022;-67
2022/09/19 06:05:36;;;;;;;7.15;1.50;;;;;;;-140.72;100.00;52916.44;5027336;28;20044;-66
2022/09/19 06:08:04;;;;;;;2.85;1.20;;;;;;;-140.72;100.00;52946.88;5023794;28;20500;-65
2022/09/19 06:10:33;;;;;;;3.65;0.85;;;;;;;-140.72;100.00;52926.59;5033190;28;20397;-69
2022/09/19 06:12:59;;;;;;;1.95;0.77;;;;;;;-140.72;100.00;52922.53;5029102;28;20033;-68
2022/09/19 06:15:24;;;;;;;5.22;0.75;;;;;;;-140.72;100.00;52957.03;5028593;28;20367;-67
2022/09/19 06:17:56;;;;;;;1.58;0.65;;;;;;;-140.72;100.00;52916.44;5028985;28;20045;-69
2022/09/19 06:20:22;;;;;;;0.80;0.35;;;;;;;-140.72;100.00;52924.56;5030915;28;20034;-68
2022/09/19 06:22:47;;;;;;;2.60;0.65;;;;;;;-140.72;100.00;52914.41;5028750;28;20021;-67
2022/09/19 06:25:13;;;;;;;2.55;0.75;;;;;;;-140.72;100.00;52967.16;5027654;28;20397;-69
2022/09/19 06:27:42;;;;;;;2.53;0.85;;;;;;;-140.72;100.00;52904.25;5028725;28;20038;-69
2022/09/19 06:30:08;;;;;;;1.50;0.40;;;;;;;-140.72;100.00;52971.22;5031576;28;20017;-68
2022/09/19 06:32:33;;;;;;;2.78;0.98;;;;;;;-140.72;100.00;52898.16;5028860;28;20036;-67
2022/09/19 06:34:59;;;;;;;1.52;0.38;;;;;;;-140.72;100.00;52904.25;5031031;28;20030;-66
2022/09/19 06:37:24;;;;;;;2.35;0.38;;;;;;;-140.72;100.00;52877.88;5029835;28;20025;-67
2022/09/19 06:39:49;;;;;;;4.28;0.52;;;;;;;-140.72;100.00;52912.38;5028027;28;20410;-68
2022/09/19 06:42:15;;;;;;;2.67;1.05;;;;;;;-140.72;100.00;52906.28;5030054;28;20029;-68
2022/09/19 06:44:40;;;;;;;1.38;0.50;;;;;;;-140.72;100.00;52886.00;5028065;28;20279;-68
2022/09/19 06:47:06;;;;;;;3.58;0.65;;;;;;;-140.72;100.00;52869.75;5027732;28;20052;-66
2022/09/19 06:49:32;;;;;;;2.92;0.85;;;;;;;-140.72;100.00;52869.75;5031810;28;20068;-68
2022/09/19 06:51:57;;;;;;;4.20;0.88;;;;;;;-140.72;100.00;52894.13;5034183;28;20040;-67
2022/09/19 06:54:23;;;;;;;1.35;0.60;;;;;;;-140.72;100.00;52898.16;5028056;28;20428;-66
2022/09/19 06:56:49;;;;;;;5.60;1.23;;;;;;;-140.72;100.00;52867.72;5027869;28;20457;-67
2022/09/19 06:59:16;;;;;;;3.33;0.95;;;;;;;-140.72;100.00;52898.16;5030862;28;20116;-66
2022/09/19 07:01:42;;;;;;;0.82;0.57;;;;;;;-140.72;100.00;52906.28;5035391;28;20034;-67
2022/09/19 07:04:07;;;;;;;6.82;0.93;;;;;;;-140.72;100.00;52879.91;5029524;28;20763;-68
2022/09/19 07:06:35;;;;;;;3.22;0.75;;;;;;;-140.72;100.00;52877.88;5022613;28;20065;-67
2022/09/19 07:09:02;;;;;;;1.65;0.82;;;;;;;-140.72;100.00;52900.19;5016682;28;20033;-68
2022/09/19 07:11:28;;;;;;;3.17;0.85;;;;;;;-140.72;100.00;52910.34;5024069;28;20132;-68
2022/09/19 07:13:53;;;;;;;1.45;0.52;;;;;;;-140.72;100.00;52908.31;5027129;28;20037;-67
2022/09/19 07:16:19;;;;;;;3.38;1.17;;;;;;;-140.72;100.00;52890.06;5025559;28;20029;-68
2022/09/19 07:18:44;;;;;;;8.27;1.10;;;;;;;-140.72;100.00;52877.88;5026397;28;20053;-69
2022/09/19 07:21:09;;;;;;;0.98;0.40;;;;;;;-140.72;100.00;52918.47;5025991;28;20432;-67
2022/09/19 07:23:35;;;;;;;2.78;0.77;;;;;;;-140.72;100.00;52845.41;5029125;28;20033;-68
2022/09/19 07:26:01;;;;;;;6.72;0.85;;;;;;;-140.72;100.00;52843.38;5030140;28;20051;-68
2022/09/19 07:28:26;;;;;;;3.25;0.77;;;;;;;-140.72;100.00;52877.88;5028123;28;20100;-68
2022/09/19 07:30:52;;;;;;;0.90;0.40;;;;;;;-140.72;100.00;52879.91;5029162;28;20038;-70
2022/09/19 07:33:23;;;;;;;10.90;0.90;;;;;;;-140.72;100.00;52861.66;5030481;28;20025;-68
2022/09/19 07:35:51;;;;;;;2.70;0.35;;;;;;;-140.72;100.00;52861.66;5030569;28;20396;-68
2022/09/19 07:38:19;;;;;;;0.28;0.20;;;;;;;-140.72;100.00;52825.13;5031378;28;20033;-68
2022/09/19 07:40:45;;;;;;;8.68;0.85;;;;;;;-140.72;100.00;52831.19;5036754;28;20116;-67
2022/09/19 07:43:13;;;;;;;1.45;0.30;;;;;;;-140.72;100.00;52806.84;5034568;28;20024;-68
2022/09/19 07:45:42;;;;;;;1.67;0.32;;;;;;;-140.72;100.00;52778.44;5033872;28;20095;-66
2022/09/19 07:48:07;;;;;;;3.70;0.50;;;;;;;-140.72;100.00;52802.78;5029665;28;20382;-67
2022/09/19 07:50:35;;;;;;;5.57;0.70;;;;;;;-140.72;100.00;52774.38;5031788;28;20218;-67
2022/09/19 07:53:02;;;;;;;1.40;0.47;;;;;;;-140.72;100.00;52778.44;5031352;28;20033;-68
2022/09/19 07:55:28;;;;;;;1.35;0.40;;;;;;;-140.72;100.00;52762.22;5031185;28;20386;-67
2022/09/19 07:57:58;;;;;;;4.80;0.85;;;;;;;-140.72;100.00;52796.72;5022518;28;20037;-68
2022/09/19 08:00:26;;;;;;;4.32;0.75;;;;;;;-140.72;100.00;52768.28;5028739;28;20026;-68
2022/09/19 08:02:55;;;;;;;3.13;0.77;;;;;;;-140.72;100.00;52760.19;5029462;28;20033;-69
2022/09/19 08:05:20;;;;;;;1.45;0.40;;;;;;;-140.72;100.00;52780.47;5030963;28;20112;-66
2022/09/19 08:07:46;;;;;;;1.70;0.43;;;;;;;-140.72;100.00;52808.88;5031288;28;20113;-68
2022/09/19 08:10:11;;;;;;;5.35;0.80;;;;;;;-140.72;100.00;52754.09;5028935;28;20067;-67
2022/09/19 08:12:37;;;;;;;1.67;0.52;;;;;;;-140.72;100.00;52778.44;5030487;28;20128;-67
2022/09/19 08:15:03;;;;;;;3.60;0.68;;;;;;;-140.72;100.00;52756.13;5030560;28;20037;-68
2022/09/19 08:17:28;;;;;;;3.88;0.75;;;;;;;-140.72;100.00;52756.13;5030436;28;20086;-69
2022/09/19 08:19:55;;;;;;;0.93;0.40;;;;;;;-140.72;100.00;52731.75;5033324;28;20397;-68
2022/09/19 08:22:20;;;;;;;1.00;0.30;;;;;;;-140.72;100.00;52780.47;5040295;28;20021;-71
2022/09/19 08:24:46;;;;;;;2.28;0.60;;;;;;;-140.72;100.00;52748.00;5030366;28;20045;-68
2022/09/19 08:27:11;;;;;;;1.85;0.68;;;;;;;-140.72;100.00;52782.50;5030627;28;20046;-68
2022/09/19 08:29:38;;;;;;;4.18;0.70;;;;;;;-140.72;100.00;52784.53;5030432;28;20026;-72
2022/09/19 08:32:04;;;;;;;3.95;0.47;;;;;;;-140.72;100.00;52776.41;5042889;28;20118;-68
2022/09/19 08:34:29;;;;;;;3.20;0.43;;;;;;;-140.72;100.00;52792.66;5035035;28;20488;-68
2022/09/19 08:36:58;;;;;;;1.55;0.40;;;;;;;-140.72;100.00;52764.25;5032716;28;20030;-68
2022/09/19 08:39:25;;;;;;;3.33;1.00;;;;;;;-140.72;100.00;52752.06;5032555;28;20099;-69
2022/09/19 08:42:32;;;;;;;0.98;0.50;;;;;;;-140.72;100.00;52715.53;5035087;28;20048;-68
2022/09/19 08:45:16;;;;;;;3.10;0.50;;;;;;;-140.72;100.00;52748.00;5005054;28;20084;-69
2022/09/19 08:47:42;;;;;;;1.15;0.40;;;;;;;-140.72;100.00;52727.72;5030627;28;20124;-69
2022/09/19 08:50:21;;;;;;;1.80;0.43;;;;;;;-140.72;100.00;52733.78;5041543;28;20112;-70
2022/09/19 08:52:50;;;;;;;3.58;0.40;;;;;;;-140.72;100.00;52719.59;5029759;28;20091;-68
2022/09/19 08:55:28;;;;;;;1.90;0.75;;;;;;;-140.72;100.00;52679.00;5036772;28;20483;-68
2022/09/19 08:57:58;;;;;;;6.47;1.05;;;;;;;-140.72;100.00;52711.47;5042657;28;20037;-68
2022/09/19 09:00:25;;;;;;;2.78;0.20;;;;;;;-140.72;100.00;52695.25;5022514;28;20037;-69
2022/09/19 09:02:51;;;;;;;4.25;0.30;;;;;;;-140.72;100.00;52630.31;5030517;28;20497;-68
2022/09/19 09:05:45;;;;;;;2.10;0.52;;;;;;;-140.72;100.00;52670.88;5030372;28;20044;-70
2022/09/19 09:08:25;;;;;;;3.08;0.70;;;;;;;-140.72;100.00;52672.91;5027503;28;20047;-68
2022/09/19 09:10:59;;;;;;;1.30;0.50;;;;;;;-140.72;100.00;52681.03;5033383;28;20060;-71
2022/09/19 09:13:51;;;;;;;1.08;0.40;;;;;;;-140.72;100.00;52666.84;5028989;28;20525;-70
2022/09/19 09:16:45;;;;;;;2.45;0.55;;;;;;;-140.72;100.00;52666.84;5027025;28;20037;-68
2022/09/19 09:19:22;;;;;;;3.28;0.95;;;;;;;-140.72;100.00;52652.63;5039315;28;20048;-70
2022/09/19 09:21:59;;;;;;;2.25;0.43;;;;;;;-140.72;100.00;52624.22;5027866;28;20032;-71
2022/09/19 09:24:35;;;;;;;0.70;0.40;;;;;;;-140.72;100.00;52622.19;5035391;28;20021;-68
2022/09/19 09:27:03;;;;;;;1.15;0.35;;;;;;;-140.72;100.00;52626.25;5027489;28;20550;-68
2022/09/19 09:29:44;;;;;;;1.80;0.22;;;;;;;-140.72;100.00;52636.38;5032600;28;20037;-69
2022/09/19 09:32:26;;;;;;;1.25;0.30;;;;;;;-140.72;100.00;52628.28;5030322;28;20033;-70
2022/09/19 09:34:58;;;;;;;1.98;0.40;;;;;;;-140.72;100.00;52640.44;5027997;28;20425;-67
2022/09/19 09:37:53;;;;;;;1.10;0.40;;;;;;;-140.72;100.00;52632.34;5029934;28;20488;-69
2022/09/19 09:43:11;;;;;;;1.70;0.40;;;;;;;-140.72;100.00;52597.84;5032476;28;20267;-69
2022/09/19 09:45:44;;;;;;;0.90;0.32;;;;;;;-140.72;100.00;52620.16;5029024;28;20048;-68
2022/09/19 09:48:32;;;;;;;1.40;0.32;;;;;;;-140.72;0.00;52585.66;5027580;28;20121;-70
2022/09/19 09:51:19;;;;;;;1.08;0.30;;;;;;;-140.72;0.00;52561.31;5027682;28;20078;-69
2022/09/19 09:54:00;;;;;;;2.30;0.60;;;;;;;-140.72;0.00;52559.28;5036025;28;20037;-68
2022/09/19 09:56:29;;;;;;;0.88;0.17;;;;;;;-140.72;0.00;52557.25;5030353;28;20071;-69
2022/09/19 10:05:42;;;;;;;1.17;0.10;;;;;;;-140.72;0.00;52610.00;5044171;28;20409;-70
2022/09/19 10:08:14;;;;;;;0.98;0.30;;;;;;;-140.72;0.00;52587.69;5033047;28;20028;-68
2022/09/19 10:10:41;;;;;;;1.75;0.52;;;;;;;-140.72;0.00;52632.34;5034518;28;20045;-68
2022/09/19 10:13:25;;;;;;;2.90;0.40;;;;;;;-140.72;0.00;52589.72;5034414;28;20022;-69
2022/09/19 10:15:54;;;;;;;0.65;0.15;;;;;;;-140.72;0.00;52532.91;5029517;28;20052;-71
2022/09/19 10:18:24;;;;;;;1.50;0.28;;;;;;;-140.72;0.00;52559.28;5035594;28;20032;-71
2022/09/19 10:20:52;;;;;;;2.03;0.40;;;;;;;-140.72;0.00;52506.53;5035064;28;20025;-69
2022/09/19 10:23:31;;;;;;;1.15;0.22;;;;;;;-140.72;0.00;52480.16;5037528;28;20067;-69
2022/09/19 10:26:04;;;;;;;1.45;0.25;;;;;;;-140.72;0.00;52506.53;5037012;28;20029;-70
2022/09/19 10:28:43;;;;;;;3.13;0.30;;;;;;;-140.72;0.00;52496.38;5034876;28;20032;-71
2022/09/19 10:31:38;;;;;;;3.63;0.40;;;;;;;-140.72;0.00;52539.00;5030108;28;20125;-67
2022/09/19 10:34:21;;;;;;;0.70;0.20;;;;;;;-140.72;0.00;52551.16;5026342;28;20469;-69
2022/09/19 10:36:47;;;;;;;2.83;0.30;;;;;;;-140.72;0.00;52532.91;5034313;28;20369;-69
2022/09/19 10:39:17;;;;;;;2.47;0.38;;;;;;;-140.72;0.00;52504.50;5034599;28;20026;-72
2022/09/19 10:41:43;;;;;;;0.45;0.10;;;;;;;-140.72;0.00;52561.31;5020393;28;20017;-69
2022/09/19 10:44:21;;;;;;;1.23;0.55;;;;;;;-140.72;0.00;52553.19;5033297;28;20195;-70
2022/09/19 10:46:50;;;;;;;1.52;0.60;;;;;;;-140.72;0.00;52569.44;5029148;28;20037;-68
2022/09/19 10:49:22;;;;;;;2.58;0.43;;;;;;;-140.72;0.00;52581.59;5028794;28;20032;-69
2022/09/19 10:51:50;;;;;;;1.50;0.50;;;;;;;-140.72;0.00;52597.84;5028274;28;20538;-68
2022/09/19 10:54:39;;;;;;;1.67;0.30;;;;;;;-140.72;0.00;52498.41;5034480;28;20466;-68
2022/09/19 10:57:24;;;;;;;0.98;0.28;;;;;;;-140.72;0.00;52490.28;5030312;28;20578;-69
2022/09/19 10:59:50;;;;;;;0.38;0.13;;;;;;;-140.72;0.00;52476.09;5025818;28;20033;-71
2022/09/19 11:02:23;;;;;;;1.70;0.25;;;;;;;-140.72;0.00;52405.06;5034098;28;20029;-70
2022/09/19 11:05:00;;;;;;;1.23;0.43;;;;;;;-140.72;0.00;52366.50;5034251;28;20043;-68
2022/09/19 11:07:29;;;;;;;0.35;0.15;;;;;;;-140.72;0.00;52392.88;5037225;28;20041;-68
2022/09/19 11:09:59;;;;;;;1.10;0.22;;;;;;;-140.72;0.00;52261.00;5032555;28;20044;-71
2022/09/19 11:12:31;;;;;;;0.73;0.10;;;;;;;-140.72;0.00;52390.84;5032180;28;20076;-68
2022/09/19 11:14:58;;;;;;;1.10;0.30;;;;;;;-140.72;0.00;52431.44;5032295;28;20030;-69
2022/09/19 11:17:31;;;;;;;0.68;0.13;;;;;;;-140.72;0.00;52429.41;5032158;28;20079;-68
2022/09/19 11:20:18;;;;;;;0.77;0.17;;;;;;;-140.72;0.00;52356.38;5031315;28;20442;-70
2022/09/19 11:23:27;;;;;;;1.33;0.20;;;;;;;-140.72;0.00;52354.34;5030491;28;20029;-69
2022/09/19 11:26:10;;;;;;;1.75;0.35;;;;;;;-140.72;0.00;52419.28;5031372;28;20030;-68
2022/09/19 11:29:12;;;;;;;3.05;0.30;;;;;;;-140.72;0.00;52472.03;5038308;28;20056;-68
2022/09/19 11:31:45;;;;;;;2.22;0.20;;;;;;;-140.72;0.00;52370.56;5031668;28;20127;-68
2022/09/19 11:34:27;;;;;;;1.10;0.32;;;;;;;-140.72;0.00;52390.84;5030375;28;20044;-72
2022/09/19 11:37:10;;;;;;;1.52;0.22;;;;;;;-140.72;0.00;52451.72;5047723;28;20078;-72
2022/09/19 11:40:09;;;;;;;0.57;0.20;;;;;;;-140.72;0.00;52309.69;5029063;28;20030;-68
2022/09/19 11:43:05;;;;;;;0.70;0.20;;;;;;;-140.72;0.00;52218.38;5042376;28;20029;-70
2022/09/19 11:46:06;;;;;;;0.98;0.20;;;;;;;-140.72;0.00;52358.41;5031519;28;20030;-68
2022/09/19 11:48:47;;;;;;;2.20;0.20;;;;;;;-140.72;0.00;52344.19;5030774;28;20033;-68